sensor_id;sensor_type;location;lat;lon;timestamp;temperature;humidity
10386;DHT22;34307;51.332;12.334;2023-08-30T04:07:16;13.30;99.90
10386;DHT22;34307;51.332;12.334;2023-08-30T04:09:46;13.20;99.90
10386;DHT22;34307;51.332;12.334;2023-08-30T04:12:14;13.20;99.90
10386;DHT22;34307;51.332;12.334;2023-08-30T04:14:43;13.20;99.90
10386;DHT22;34307;51.332;12.334;2023-08-30T04:17:11;13.10;99.90
10386;DHT22;34307;51.332;12.334;2023-08-30T04:19:39;13.00;99.90
10386;DHT22;34307;51.332;12.334;2023-08-30T04:22:07;13.10;99.90
10386;DHT22;34307;51.332;12.334;2023-08-30T04:24:36;13.00;99.90
10386;DHT22;34307;51.332;12.334;2023-08-30T04:27:06;13.00;99.90
10386;DHT22;34307;51.332;12.334;2023-08-30T04:29:42;13.00;99.90
10386;DHT22;34307;51.332;12.334;2023-08-30T04:32:11;13.00;99.90
10386;DHT22;34307;51.332;12.334;2023-08-30T04:34:39;13.00;99.90
10386;DHT22;34307;51.332;12.334;2023-08-30T04:37:07;13.00;99.90
10386;DHT22;34307;51.332;12.334;2023-08-30T04:39:37;13.00;99.90
10386;DHT22;34307;51.332;12.334;2023-08-30T10:21:48;19.10;62.80
10386;DHT22;34307;51.332;12.334;2023-08-30T10:24:19;19.30;68.10
10386;DHT22;34307;51.332;12.334;2023-08-30T10:27:06;19.70;66.30
10386;DHT22;34307;51.332;12.334;2023-08-30T10:29:37;20.40;64.00
10386;DHT22;34307;51.332;12.334;2023-08-30T10:32:07;20.60;62.40
10386;DHT22;34307;51.332;12.334;2023-08-30T10:34:38;20.70;58.80
10386;DHT22;34307;51.332;12.334;2023-08-30T10:37:12;20.60;56.10
10386;DHT22;34307;51.332;12.334;2023-08-30T10:39:42;20.50;59.30
10386;DHT22;34307;51.332;12.334;2023-08-30T10:56:58;19.10;67.60
10386;DHT22;34307;51.332;12.334;2023-08-30T10:59:29;19.10;69.40
10386;DHT22;34307;51.332;12.334;2023-08-30T11:02:01;19.30;70.60
10386;DHT22;34307;51.332;12.334;2023-08-30T11:04:30;19.60;69.90
10386;DHT22;34307;51.332;12.334;2023-08-30T11:06:58;19.80;69.60
10386;DHT22;34307;51.332;12.334;2023-08-30T11:09:26;20.20;67.60
10386;DHT22;34307;51.332;12.334;2023-08-30T11:12:05;21.00;65.40
10386;DHT22;34307;51.332;12.334;2023-08-30T11:14:33;21.10;54.00
10386;DHT22;34307;51.332;12.334;2023-08-30T11:17:03;21.10;54.60
10386;DHT22;34307;51.332;12.334;2023-08-30T11:19:41;21.60;53.20
10386;DHT22;34307;51.332;12.334;2023-08-30T11:22:14;21.80;49.60
10386;DHT22;34307;51.332;12.334;2023-08-30T11:24:43;21.40;51.70
10386;DHT22;34307;51.332;12.334;2023-08-30T11:27:17;21.50;51.00
10386;DHT22;34307;51.332;12.334;2023-08-30T11:29:45;21.80;48.90
10386;DHT22;34307;51.332;12.334;2023-08-30T11:32:13;22.00;49.60
10386;DHT22;34307;51.332;12.334;2023-08-30T11:34:41;21.90;46.00
10386;DHT22;34307;51.332;12.334;2023-08-30T11:37:09;21.60;46.50
10386;DHT22;34307;51.332;12.334;2023-08-30T11:39:40;22.30;47.00
10386;DHT22;34307;51.332;12.334;2023-08-30T11:42:13;22.30;44.20
10386;DHT22;34307;51.332;12.334;2023-08-30T11:44:46;21.50;46.60
10386;DHT22;34307;51.332;12.334;2023-08-30T11:47:18;22.30;47.50
10386;DHT22;34307;51.332;12.334;2023-08-30T11:49:50;23.30;43.90
10386;DHT22;34307;51.332;12.334;2023-08-30T11:52:20;22.80;44.50
10386;DHT22;34307;51.332;12.334;2023-08-30T11:54:51;22.90;43.60
10386;DHT22;34307;51.332;12.334;2023-08-30T11:57:21;22.20;42.30
10386;DHT22;34307;51.332;12.334;2023-08-30T11:59:50;21.90;44.80
10386;DHT22;34307;51.332;12.334;2023-08-30T12:02:22;21.80;45.40
10386;DHT22;34307;51.332;12.334;2023-08-30T12:04:51;22.20;47.40
10386;DHT22;34307;51.332;12.334;2023-08-30T12:07:23;23.20;45.30
10386;DHT22;34307;51.332;12.334;2023-08-30T12:10:05;24.10;40.80
10386;DHT22;34307;51.332;12.334;2023-08-30T12:12:33;22.50;41.00
10386;DHT22;34307;51.332;12.334;2023-08-30T12:15:10;21.80;40.70
10386;DHT22;34307;51.332;12.334;2023-08-30T12:17:38;22.30;43.10
10386;DHT22;34307;51.332;12.334;2023-08-30T12:20:16;22.20;43.30
10386;DHT22;34307;51.332;12.334;2023-08-30T12:22:48;22.60;42.50
10386;DHT22;34307;51.332;12.334;2023-08-30T12:25:19;23.00;39.90
10386;DHT22;34307;51.332;12.334;2023-08-30T12:27:48;23.20;40.10
10386;DHT22;34307;51.332;12.334;2023-08-30T12:30:18;23.60;39.50
10386;DHT22;34307;51.332;12.334;2023-08-30T12:32:48;23.70;38.40
10386;DHT22;34307;51.332;12.334;2023-08-30T12:35:16;23.50;37.70
10386;DHT22;34307;51.332;12.334;2023-08-30T12:37:59;23.60;37.70
10386;DHT22;34307;51.332;12.334;2023-08-30T12:40:32;23.50;37.50
10386;DHT22;34307;51.332;12.334;2023-08-30T12:43:16;24.00;32.60
10386;DHT22;34307;51.332;12.334;2023-08-30T12:45:50;24.10;33.30
10386;DHT22;34307;51.332;12.334;2023-08-30T12:48:21;24.50;29.50
10386;DHT22;34307;51.332;12.334;2023-08-30T12:50:51;23.70;33.20
10386;DHT22;34307;51.332;12.334;2023-08-30T12:53:19;23.30;35.10
10386;DHT22;34307;51.332;12.334;2023-08-30T12:55:48;24.00;37.50
10386;DHT22;34307;51.332;12.334;2023-08-30T12:58:18;24.80;32.70
10386;DHT22;34307;51.332;12.334;2023-08-30T13:00:49;24.40;31.50
10386;DHT22;34307;51.332;12.334;2023-08-30T13:03:17;24.40;31.20
10386;DHT22;34307;51.332;12.334;2023-08-30T13:05:45;24.40;28.70
10386;DHT22;34307;51.332;12.334;2023-08-30T13:08:13;25.00;29.00
10386;DHT22;34307;51.332;12.334;2023-08-30T13:10:42;25.20;26.80
10386;DHT22;34307;51.332;12.334;2023-08-30T13:13:13;25.30;26.90
10386;DHT22;34307;51.332;12.334;2023-08-30T13:15:42;24.40;25.00
10386;DHT22;34307;51.332;12.334;2023-08-30T13:18:11;24.00;28.40
10386;DHT22;34307;51.332;12.334;2023-08-30T13:20:44;23.60;29.30
10386;DHT22;34307;51.332;12.334;2023-08-30T13:23:13;22.50;31.10
10386;DHT22;34307;51.332;12.334;2023-08-30T13:25:41;21.80;31.60
10386;DHT22;34307;51.332;12.334;2023-08-30T13:28:09;22.00;32.90
10386;DHT22;34307;51.332;12.334;2023-08-30T13:30:44;22.40;32.20
10386;DHT22;34307;51.332;12.334;2023-08-30T13:33:19;22.80;30.20
10386;DHT22;34307;51.332;12.334;2023-08-30T13:35:50;23.00;29.20
10386;DHT22;34307;51.332;12.334;2023-08-30T13:38:19;23.80;29.10
10386;DHT22;34307;51.332;12.334;2023-08-30T13:40:47;23.10;25.30
10386;DHT22;34307;51.332;12.334;2023-08-30T13:43:29;23.40;24.10
10386;DHT22;34307;51.332;12.334;2023-08-30T13:46:05;24.10;23.90
10386;DHT22;34307;51.332;12.334;2023-08-30T13:48:34;23.50;22.90
10386;DHT22;34307;51.332;12.334;2023-08-30T13:51:04;23.40;21.90
10386;DHT22;34307;51.332;12.334;2023-08-30T13:53:33;23.90;21.80
10386;DHT22;34307;51.332;12.334;2023-08-30T13:56:02;23.60;21.40
10386;DHT22;34307;51.332;12.334;2023-08-30T13:58:30;22.70;20.10
10386;DHT22;34307;51.332;12.334;2023-08-30T14:00:59;22.60;22.80
10386;DHT22;34307;51.332;12.334;2023-08-30T14:03:27;22.60;21.50
10386;DHT22;34307;51.332;12.334;2023-08-30T14:05:57;22.60;22.40
10386;DHT22;34307;51.332;12.334;2023-08-30T14:08:26;22.60;23.90
10386;DHT22;34307;51.332;12.334;2023-08-30T14:10:54;22.70;24.10
10386;DHT22;34307;51.332;12.334;2023-08-30T14:13:23;22.90;23.50
10386;DHT22;34307;51.332;12.334;2023-08-30T14:15:52;22.80;22.60
10386;DHT22;34307;51.332;12.334;2023-08-30T14:18:22;23.40;22.70
10386;DHT22;34307;51.332;12.334;2023-08-30T14:20:56;23.90;23.20
10386;DHT22;34307;51.332;12.334;2023-08-30T14:23:28;24.70;23.30
10386;DHT22;34307;51.332;12.334;2023-08-30T14:25:57;24.80;22.90
10386;DHT22;34307;51.332;12.334;2023-08-30T14:28:26;24.40;23.50
10386;DHT22;34307;51.332;12.334;2023-08-30T14:30:56;24.40;21.40
10386;DHT22;34307;51.332;12.334;2023-08-30T14:33:25;25.00;20.60
10386;DHT22;34307;51.332;12.334;2023-08-30T14:35:53;24.80;20.50
10386;DHT22;34307;51.332;12.334;2023-08-30T14:38:27;24.30;21.70
10386;DHT22;34307;51.332;12.334;2023-08-30T14:40:55;23.40;23.60
10386;DHT22;34307;51.332;12.334;2023-08-30T14:43:27;22.60;23.40
10386;DHT22;34307;51.332;12.334;2023-08-30T14:45:59;22.40;23.00
10386;DHT22;34307;51.332;12.334;2023-08-30T14:48:36;22.30;23.70
10386;DHT22;34307;51.332;12.334;2023-08-30T14:51:05;22.20;25.00
10386;DHT22;34307;51.332;12.334;2023-08-30T14:53:35;22.50;25.40
10386;DHT22;34307;51.332;12.334;2023-08-30T14:56:04;22.30;24.70
10386;DHT22;34307;51.332;12.334;2023-08-30T14:58:34;22.90;25.60
10386;DHT22;34307;51.332;12.334;2023-08-30T15:01:03;23.10;25.80
10386;DHT22;34307;51.332;12.334;2023-08-30T15:03:31;23.30;23.50
10386;DHT22;34307;51.332;12.334;2023-08-30T15:06:00;23.40;22.40
10386;DHT22;34307;51.332;12.334;2023-08-30T15:08:29;23.30;24.20
10386;DHT22;34307;51.332;12.334;2023-08-30T15:10:58;23.90;23.40
10386;DHT22;34307;51.332;12.334;2023-08-30T15:13:26;23.90;22.10
10386;DHT22;34307;51.332;12.334;2023-08-30T15:15:55;23.70;22.40
10386;DHT22;34307;51.332;12.334;2023-08-30T15:18:22;23.40;21.90
10386;DHT22;34307;51.332;12.334;2023-08-30T15:20:52;23.10;23.20
10386;DHT22;34307;51.332;12.334;2023-08-30T15:23:21;23.10;22.90
10386;DHT22;34307;51.332;12.334;2023-08-30T15:25:50;23.30;23.50
10386;DHT22;34307;51.332;12.334;2023-08-30T15:28:19;22.90;21.20
10386;DHT22;34307;51.332;12.334;2023-08-30T15:30:49;22.50;22.40
10386;DHT22;34307;51.332;12.334;2023-08-30T15:33:21;22.50;23.40
10386;DHT22;34307;51.332;12.334;2023-08-30T15:35:51;22.60;22.40
10386;DHT22;34307;51.332;12.334;2023-08-30T15:38:20;22.10;23.90
10386;DHT22;34307;51.332;12.334;2023-08-30T15:40:53;22.20;24.50
10386;DHT22;34307;51.332;12.334;2023-08-30T15:43:25;22.10;22.10
10386;DHT22;34307;51.332;12.334;2023-08-30T15:45:53;22.00;24.30
10386;DHT22;34307;51.332;12.334;2023-08-30T15:48:23;21.70;23.80
10386;DHT22;34307;51.332;12.334;2023-08-30T15:50:53;21.60;25.40
10386;DHT22;34307;51.332;12.334;2023-08-30T15:53:23;21.60;25.30
10386;DHT22;34307;51.332;12.334;2023-08-30T15:55:51;21.60;25.90
10386;DHT22;34307;51.332;12.334;2023-08-30T15:58:20;21.80;27.20
10386;DHT22;34307;51.332;12.334;2023-08-30T16:00:50;21.80;27.10
10386;DHT22;34307;51.332;12.334;2023-08-30T16:03:18;21.80;26.50
10386;DHT22;34307;51.332;12.334;2023-08-30T16:05:47;21.80;26.90
10386;DHT22;34307;51.332;12.334;2023-08-30T16:08:15;21.80;28.50
10386;DHT22;34307;51.332;12.334;2023-08-30T16:10:43;21.60;28.40
10386;DHT22;34307;51.332;12.334;2023-08-30T16:13:13;21.50;29.50
10386;DHT22;34307;51.332;12.334;2023-08-30T16:15:41;21.60;29.90
10386;DHT22;34307;51.332;12.334;2023-08-30T16:18:10;21.50;29.90
10386;DHT22;34307;51.332;12.334;2023-08-30T16:20:40;21.40;31.60
10386;DHT22;34307;51.332;12.334;2023-08-30T16:23:11;21.20;30.70
10386;DHT22;34307;51.332;12.334;2023-08-30T16:25:42;21.20;32.00
10386;DHT22;34307;51.332;12.334;2023-08-30T16:28:12;21.30;32.00
10386;DHT22;34307;51.332;12.334;2023-08-30T16:30:40;21.30;33.60
10386;DHT22;34307;51.332;12.334;2023-08-30T16:33:10;21.60;33.40
10386;DHT22;34307;51.332;12.334;2023-08-30T16:35:38;22.10;31.80
10386;DHT22;34307;51.332;12.334;2023-08-30T16:38:06;22.10;31.00
10386;DHT22;34307;51.332;12.334;2023-08-30T16:40:34;21.80;32.00
10386;DHT22;34307;51.332;12.334;2023-08-30T16:43:04;21.80;32.30
10386;DHT22;34307;51.332;12.334;2023-08-30T16:45:33;21.60;33.60
10386;DHT22;34307;51.332;12.334;2023-08-30T16:48:02;21.60;33.60
10386;DHT22;34307;51.332;12.334;2023-08-30T16:50:36;21.60;33.90
10386;DHT22;34307;51.332;12.334;2023-08-30T16:53:07;21.70;35.50
10386;DHT22;34307;51.332;12.334;2023-08-30T16:55:35;21.60;34.60
10386;DHT22;34307;51.332;12.334;2023-08-30T16:58:04;21.60;35.60
10386;DHT22;34307;51.332;12.334;2023-08-30T17:00:33;21.60;35.70
10386;DHT22;34307;51.332;12.334;2023-08-30T17:03:03;21.20;35.80
10386;DHT22;34307;51.332;12.334;2023-08-30T17:05:32;20.80;36.40
10386;DHT22;34307;51.332;12.334;2023-08-30T17:08:04;20.50;37.40
10386;DHT22;34307;51.332;12.334;2023-08-30T17:10:32;20.40;38.80
10386;DHT22;34307;51.332;12.334;2023-08-30T17:13:03;20.50;40.50
10386;DHT22;34307;51.332;12.334;2023-08-30T17:15:32;20.50;41.20
10386;DHT22;34307;51.332;12.334;2023-08-30T17:18:00;20.50;41.60
10386;DHT22;34307;51.332;12.334;2023-08-30T17:20:28;20.80;40.50
10386;DHT22;34307;51.332;12.334;2023-08-30T17:22:57;21.20;40.20
10386;DHT22;34307;51.332;12.334;2023-08-30T17:25:33;21.60;40.00
10386;DHT22;34307;51.332;12.334;2023-08-30T17:28:03;21.60;38.70
10386;DHT22;34307;51.332;12.334;2023-08-30T17:30:31;21.60;39.50
10386;DHT22;34307;51.332;12.334;2023-08-30T17:33:05;21.60;40.10
10386;DHT22;34307;51.332;12.334;2023-08-30T17:35:34;21.00;40.70
10386;DHT22;34307;51.332;12.334;2023-08-30T17:38:05;20.60;42.10
10386;DHT22;34307;51.332;12.334;2023-08-30T17:40:36;20.40;43.50
10386;DHT22;34307;51.332;12.334;2023-08-30T17:43:06;20.20;46.30
10386;DHT22;34307;51.332;12.334;2023-08-30T17:45:34;20.00;46.90
10386;DHT22;34307;51.332;12.334;2023-08-30T17:48:03;19.80;49.70
10386;DHT22;34307;51.332;12.334;2023-08-30T17:50:31;19.60;52.00
10386;DHT22;34307;51.332;12.334;2023-08-30T17:53:01;19.40;54.30
10386;DHT22;34307;51.332;12.334;2023-08-30T17:55:30;19.20;56.40
10386;DHT22;34307;51.332;12.334;2023-08-30T17:58:09;19.00;58.80
10386;DHT22;34307;51.332;12.334;2023-08-30T18:00:37;18.90;60.00
10386;DHT22;34307;51.332;12.334;2023-08-30T18:03:06;18.80;61.20
10386;DHT22;34307;51.332;12.334;2023-08-30T18:05:35;18.80;65.10
10386;DHT22;34307;51.332;12.334;2023-08-30T18:08:04;18.70;67.60
10386;DHT22;34307;51.332;12.334;2023-08-30T18:10:34;18.70;68.80
10386;DHT22;34307;51.332;12.334;2023-08-30T18:13:02;18.70;71.60
10386;DHT22;34307;51.332;12.334;2023-08-30T18:15:34;18.60;73.30
10386;DHT22;34307;51.332;12.334;2023-08-30T18:18:05;18.60;75.20
10386;DHT22;34307;51.332;12.334;2023-08-30T18:20:33;18.50;77.40
10386;DHT22;34307;51.332;12.334;2023-08-30T18:23:03;18.50;75.70
10386;DHT22;34307;51.332;12.334;2023-08-30T18:25:33;18.50;78.00
10386;DHT22;34307;51.332;12.334;2023-08-30T18:28:01;18.40;77.20
10386;DHT22;34307;51.332;12.334;2023-08-30T18:30:29;18.40;78.00
10386;DHT22;34307;51.332;12.334;2023-08-30T18:32:59;18.40;79.30
10386;DHT22;34307;51.332;12.334;2023-08-30T18:35:27;18.40;81.20
10386;DHT22;34307;51.332;12.334;2023-08-30T18:37:55;18.40;81.00
10386;DHT22;34307;51.332;12.334;2023-08-30T18:40:26;18.40;84.00
10386;DHT22;34307;51.332;12.334;2023-08-30T18:42:57;18.30;85.30
10386;DHT22;34307;51.332;12.334;2023-08-30T18:45:25;18.30;86.40
10386;DHT22;34307;51.332;12.334;2023-08-30T18:47:54;18.20;87.60
10386;DHT22;34307;51.332;12.334;2023-08-30T18:50:23;18.20;89.30
10386;DHT22;34307;51.332;12.334;2023-08-30T18:52:54;18.20;88.40
10386;DHT22;34307;51.332;12.334;2023-08-30T18:55:23;18.10;88.20
10386;DHT22;34307;51.332;12.334;2023-08-30T18:57:51;18.10;85.50
10386;DHT22;34307;51.332;12.334;2023-08-30T19:00:19;18.10;86.50
10386;DHT22;34307;51.332;12.334;2023-08-30T19:02:48;18.10;86.80
10386;DHT22;34307;51.332;12.334;2023-08-30T19:05:17;18.10;85.70
10386;DHT22;34307;51.332;12.334;2023-08-30T19:07:46;18.00;87.70
10386;DHT22;34307;51.332;12.334;2023-08-30T19:10:15;18.10;86.50
10386;DHT22;34307;51.332;12.334;2023-08-30T19:12:45;18.10;86.70
10386;DHT22;34307;51.332;12.334;2023-08-30T19:15:13;18.10;88.70
10386;DHT22;34307;51.332;12.334;2023-08-30T19:17:43;18.00;89.30
10386;DHT22;34307;51.332;12.334;2023-08-30T19:20:12;18.00;90.00
10386;DHT22;34307;51.332;12.334;2023-08-30T19:22:42;17.90;90.90
10386;DHT22;34307;51.332;12.334;2023-08-30T19:25:11;17.80;91.40
10386;DHT22;34307;51.332;12.334;2023-08-30T19:27:43;17.80;92.30
10386;DHT22;34307;51.332;12.334;2023-08-30T19:30:12;17.70;93.20
10386;DHT22;34307;51.332;12.334;2023-08-30T19:32:43;17.60;94.10
10386;DHT22;34307;51.332;12.334;2023-08-30T19:35:12;17.60;95.50
10386;DHT22;34307;51.332;12.334;2023-08-30T19:37:42;17.50;96.90
10386;DHT22;34307;51.332;12.334;2023-08-30T19:40:12;17.40;99.10
10386;DHT22;34307;51.332;12.334;2023-08-30T19:42:43;17.30;99.90
10386;DHT22;34307;51.332;12.334;2023-08-30T19:45:14;17.20;99.90
10386;DHT22;34307;51.332;12.334;2023-08-30T19:47:44;17.20;99.90
10386;DHT22;34307;51.332;12.334;2023-08-30T19:50:14;17.10;99.90
10386;DHT22;34307;51.332;12.334;2023-08-30T19:52:46;17.00;99.90
10386;DHT22;34307;51.332;12.334;2023-08-30T19:55:16;16.90;99.90
10386;DHT22;34307;51.332;12.334;2023-08-30T19:57:44;16.80;99.90
10386;DHT22;34307;51.332;12.334;2023-08-30T20:00:14;16.80;99.90
10386;DHT22;34307;51.332;12.334;2023-08-30T20:02:42;16.70;99.90
10386;DHT22;34307;51.332;12.334;2023-08-30T20:05:11;16.70;99.90
10386;DHT22;34307;51.332;12.334;2023-08-30T20:07:39;16.70;99.90
10386;DHT22;34307;51.332;12.334;2023-08-30T20:10:10;16.70;99.90
10386;DHT22;34307;51.332;12.334;2023-08-30T20:12:41;16.80;99.90
10386;DHT22;34307;51.332;12.334;2023-08-30T20:15:09;16.80;99.90
10386;DHT22;34307;51.332;12.334;2023-08-30T20:17:39;16.80;99.90
10386;DHT22;34307;51.332;12.334;2023-08-30T20:20:11;16.80;99.90
10386;DHT22;34307;51.332;12.334;2023-08-30T20:22:41;16.90;99.90
10386;DHT22;34307;51.332;12.334;2023-08-30T20:25:11;16.90;99.90
10386;DHT22;34307;51.332;12.334;2023-08-30T20:27:42;16.90;99.90
10386;DHT22;34307;51.332;12.334;2023-08-30T20:30:14;16.90;99.90
10386;DHT22;34307;51.332;12.334;2023-08-30T20:32:42;16.90;99.90
10386;DHT22;34307;51.332;12.334;2023-08-30T20:35:10;17.00;99.90
10386;DHT22;34307;51.332;12.334;2023-08-30T20:37:38;17.00;99.90
10386;DHT22;34307;51.332;12.334;2023-08-30T20:40:07;17.00;99.90
10386;DHT22;34307;51.332;12.334;2023-08-30T20:42:37;17.00;99.90
10386;DHT22;34307;51.332;12.334;2023-08-30T20:45:14;17.00;99.90
10386;DHT22;34307;51.332;12.334;2023-08-30T20:47:42;16.90;99.90
10386;DHT22;34307;51.332;12.334;2023-08-30T20:50:13;17.00;99.90
10386;DHT22;34307;51.332;12.334;2023-08-30T20:52:56;16.90;99.90
10386;DHT22;34307;51.332;12.334;2023-08-30T20:55:24;16.90;99.90
10386;DHT22;34307;51.332;12.334;2023-08-30T20:58:05;16.90;99.90
10386;DHT22;34307;51.332;12.334;2023-08-30T21:00:36;16.90;99.90
10386;DHT22;34307;51.332;12.334;2023-08-30T21:03:07;17.00;99.90
10386;DHT22;34307;51.332;12.334;2023-08-30T21:05:36;16.90;99.90
10386;DHT22;34307;51.332;12.334;2023-08-30T21:08:05;16.90;99.90
10386;DHT22;34307;51.332;12.334;2023-08-30T21:10:33;16.90;99.90
10386;DHT22;34307;51.332;12.334;2023-08-30T21:13:03;16.90;99.90
10386;DHT22;34307;51.332;12.334;2023-08-30T21:15:32;16.80;99.90
10386;DHT22;34307;51.332;12.334;2023-08-30T21:18:04;16.80;99.90
10386;DHT22;34307;51.332;12.334;2023-08-30T21:20:33;16.80;99.90
10386;DHT22;34307;51.332;12.334;2023-08-30T21:23:02;16.70;99.90
10386;DHT22;34307;51.332;12.334;2023-08-30T21:25:35;16.70;99.90
10386;DHT22;34307;51.332;12.334;2023-08-30T21:28:09;16.60;99.90
10386;DHT22;34307;51.332;12.334;2023-08-30T21:31:03;16.60;99.90
10386;DHT22;34307;51.332;12.334;2023-08-30T21:33:55;16.50;99.90
10386;DHT22;34307;51.332;12.334;2023-08-30T21:36:47;16.60;99.90
10386;DHT22;34307;51.332;12.334;2023-08-30T21:39:38;16.60;99.90
10386;DHT22;34307;51.332;12.334;2023-08-30T21:42:15;16.60;99.90
10386;DHT22;34307;51.332;12.334;2023-08-30T21:44:43;16.50;99.90
10386;DHT22;34307;51.332;12.334;2023-08-30T21:47:11;16.50;99.90
10386;DHT22;34307;51.332;12.334;2023-08-30T21:49:41;16.40;99.90
10386;DHT22;34307;51.332;12.334;2023-08-30T21:52:10;16.40;99.90
10386;DHT22;34307;51.332;12.334;2023-08-30T21:54:38;16.40;99.90
10386;DHT22;34307;51.332;12.334;2023-08-30T21:57:10;16.40;99.90
10386;DHT22;34307;51.332;12.334;2023-08-30T21:59:38;16.50;99.90
10386;DHT22;34307;51.332;12.334;2023-08-30T22:02:07;16.50;99.90
10386;DHT22;34307;51.332;12.334;2023-08-30T22:04:35;16.60;99.90
10386;DHT22;34307;51.332;12.334;2023-08-30T22:07:08;16.60;99.90
10386;DHT22;34307;51.332;12.334;2023-08-30T22:09:37;16.40;99.90
10386;DHT22;34307;51.332;12.334;2023-08-30T22:12:06;16.30;99.90
10386;DHT22;34307;51.332;12.334;2023-08-30T22:14:34;16.30;99.90
10386;DHT22;34307;51.332;12.334;2023-08-30T22:17:14;16.20;99.90
10386;DHT22;34307;51.332;12.334;2023-08-30T22:19:43;16.10;99.90
10386;DHT22;34307;51.332;12.334;2023-08-30T22:22:16;16.00;99.90
10386;DHT22;34307;51.332;12.334;2023-08-30T22:24:45;15.90;99.90
10386;DHT22;34307;51.332;12.334;2023-08-30T22:27:14;15.80;99.90
10386;DHT22;34307;51.332;12.334;2023-08-30T22:29:42;15.60;99.90
10386;DHT22;34307;51.332;12.334;2023-08-30T22:32:09;15.00;99.90
10386;DHT22;34307;51.332;12.334;2023-08-30T22:34:38;14.70;99.90
10386;DHT22;34307;51.332;12.334;2023-08-30T22:37:07;14.50;99.90
10386;DHT22;34307;51.332;12.334;2023-08-30T22:39:37;13.90;99.90
10386;DHT22;34307;51.332;12.334;2023-08-30T22:42:05;13.40;99.90
10386;DHT22;34307;51.332;12.334;2023-08-30T22:44:35;13.30;99.90
10386;DHT22;34307;51.332;12.334;2023-08-30T22:47:03;13.30;99.90
10386;DHT22;34307;51.332;12.334;2023-08-30T22:49:32;13.40;99.90
10386;DHT22;34307;51.332;12.334;2023-08-30T22:52:00;13.50;99.90
10386;DHT22;34307;51.332;12.334;2023-08-30T22:54:28;13.60;99.90
10386;DHT22;34307;51.332;12.334;2023-08-30T22:56:58;13.60;99.90
10386;DHT22;34307;51.332;12.334;2023-08-30T22:59:32;13.60;99.90
10386;DHT22;34307;51.332;12.334;2023-08-30T23:02:01;13.80;99.90
10386;DHT22;34307;51.332;12.334;2023-08-30T23:04:31;13.80;99.90
10386;DHT22;34307;51.332;12.334;2023-08-30T23:07:02;13.80;99.90
10386;DHT22;34307;51.332;12.334;2023-08-30T23:09:31;13.80;99.90
10386;DHT22;34307;51.332;12.334;2023-08-30T23:12:00;13.80;99.90
10386;DHT22;34307;51.332;12.334;2023-08-30T23:14:30;13.80;99.90
10386;DHT22;34307;51.332;12.334;2023-08-30T23:16:59;13.90;99.90
10386;DHT22;34307;51.332;12.334;2023-08-30T23:19:30;13.90;99.90
10386;DHT22;34307;51.332;12.334;2023-08-30T23:21:58;13.80;99.90
10386;DHT22;34307;51.332;12.334;2023-08-30T23:24:27;13.80;99.90
10386;DHT22;34307;51.332;12.334;2023-08-30T23:26:56;13.80;99.90
10386;DHT22;34307;51.332;12.334;2023-08-30T23:29:29;13.80;99.90
10386;DHT22;34307;51.332;12.334;2023-08-30T23:32:02;13.70;99.90
10386;DHT22;34307;51.332;12.334;2023-08-30T23:34:31;13.60;99.90
10386;DHT22;34307;51.332;12.334;2023-08-30T23:36:59;13.50;99.90
10386;DHT22;34307;51.332;12.334;2023-08-30T23:39:27;13.40;99.90
10386;DHT22;34307;51.332;12.334;2023-08-30T23:41:56;13.40;99.90
10386;DHT22;34307;51.332;12.334;2023-08-30T23:44:25;13.40;99.90
10386;DHT22;34307;51.332;12.334;2023-08-30T23:46:54;13.40;99.90
10386;DHT22;34307;51.332;12.334;2023-08-30T23:49:23;13.40;99.90
10386;DHT22;34307;51.332;12.334;2023-08-30T23:51:52;13.40;99.90
10386;DHT22;34307;51.332;12.334;2023-08-30T23:54:23;13.30;99.90
10386;DHT22;34307;51.332;12.334;2023-08-30T23:56:51;13.20;99.90
10386;DHT22;34307;51.332;12.334;2023-08-30T23:59:21;13.20;99.90
